sensor_id;sensor_type;location;lat;lon;timestamp;temperature;humidity
7654;DHT22;3869;48.406;10.774;2023-11-19T00:00:23;6.50;99.90
7654;DHT22;3869;48.406;10.774;2023-11-19T00:02:53;6.50;99.90
7654;DHT22;3869;48.406;10.774;2023-11-19T00:05:21;6.50;99.90
7654;DHT22;3869;48.406;10.774;2023-11-19T00:07:49;6.40;99.90
7654;DHT22;3869;48.406;10.774;2023-11-19T00:10:17;6.50;99.90
7654;DHT22;3869;48.406;10.774;2023-11-19T00:12:48;6.50;99.90
7654;DHT22;3869;48.406;10.774;2023-11-19T00:15:17;6.50;99.90
7654;DHT22;3869;48.406;10.774;2023-11-19T00:17:47;6.50;99.90
7654;DHT22;3869;48.406;10.774;2023-11-19T00:20:19;6.60;99.90
7654;DHT22;3869;48.406;10.774;2023-11-19T00:22:49;6.60;99.90
7654;DHT22;3869;48.406;10.774;2023-11-19T00:25:19;6.60;99.90
7654;DHT22;3869;48.406;10.774;2023-11-19T00:27:48;6.60;99.90
7654;DHT22;3869;48.406;10.774;2023-11-19T00:30:17;6.60;99.90
7654;DHT22;3869;48.406;10.774;2023-11-19T00:32:45;6.60;99.90
7654;DHT22;3869;48.406;10.774;2023-11-19T00:35:13;6.60;99.90
7654;DHT22;3869;48.406;10.774;2023-11-19T00:37:43;6.60;99.90
7654;DHT22;3869;48.406;10.774;2023-11-19T00:40:12;6.60;99.90
7654;DHT22;3869;48.406;10.774;2023-11-19T00:42:43;6.60;99.90
7654;DHT22;3869;48.406;10.774;2023-11-19T00:45:11;6.70;99.90
7654;DHT22;3869;48.406;10.774;2023-11-19T00:47:40;6.70;99.90
7654;DHT22;3869;48.406;10.774;2023-11-19T00:50:09;6.70;99.90
7654;DHT22;3869;48.406;10.774;2023-11-19T00:52:38;6.70;99.90
7654;DHT22;3869;48.406;10.774;2023-11-19T00:55:08;6.70;99.90
7654;DHT22;3869;48.406;10.774;2023-11-19T00:57:36;6.70;99.90
7654;DHT22;3869;48.406;10.774;2023-11-19T01:00:06;6.80;99.90
7654;DHT22;3869;48.406;10.774;2023-11-19T01:02:47;6.80;99.90
7654;DHT22;3869;48.406;10.774;2023-11-19T01:05:18;6.80;99.90
7654;DHT22;3869;48.406;10.774;2023-11-19T01:07:49;6.80;99.90
7654;DHT22;3869;48.406;10.774;2023-11-19T01:10:21;6.80;99.90
7654;DHT22;3869;48.406;10.774;2023-11-19T01:12:49;6.80;99.90
7654;DHT22;3869;48.406;10.774;2023-11-19T01:15:18;6.80;99.90
7654;DHT22;3869;48.406;10.774;2023-11-19T01:17:47;6.80;99.90
7654;DHT22;3869;48.406;10.774;2023-11-19T01:20:18;6.90;99.90
7654;DHT22;3869;48.406;10.774;2023-11-19T01:22:47;6.90;99.90
7654;DHT22;3869;48.406;10.774;2023-11-19T01:25:16;6.90;99.90
7654;DHT22;3869;48.406;10.774;2023-11-19T01:27:45;6.90;99.90
7654;DHT22;3869;48.406;10.774;2023-11-19T01:30:13;7.00;99.90
7654;DHT22;3869;48.406;10.774;2023-11-19T01:32:41;7.00;99.90
7654;DHT22;3869;48.406;10.774;2023-11-19T01:35:10;7.00;99.90
7654;DHT22;3869;48.406;10.774;2023-11-19T01:37:38;7.00;99.90
7654;DHT22;3869;48.406;10.774;2023-11-19T01:40:07;7.00;99.90
7654;DHT22;3869;48.406;10.774;2023-11-19T01:42:37;7.00;99.90
7654;DHT22;3869;48.406;10.774;2023-11-19T01:45:08;7.10;99.90
7654;DHT22;3869;48.406;10.774;2023-11-19T01:47:37;7.10;99.90
7654;DHT22;3869;48.406;10.774;2023-11-19T01:50:07;7.20;99.90
7654;DHT22;3869;48.406;10.774;2023-11-19T01:52:35;7.20;99.90
7654;DHT22;3869;48.406;10.774;2023-11-19T01:55:05;7.20;99.90
7654;DHT22;3869;48.406;10.774;2023-11-19T01:57:35;7.20;99.90
7654;DHT22;3869;48.406;10.774;2023-11-19T02:00:09;7.30;99.90
7654;DHT22;3869;48.406;10.774;2023-11-19T02:02:39;7.30;99.90
7654;DHT22;3869;48.406;10.774;2023-11-19T02:05:08;7.30;99.90
7654;DHT22;3869;48.406;10.774;2023-11-19T02:07:37;7.30;99.90
7654;DHT22;3869;48.406;10.774;2023-11-19T02:10:06;7.30;99.90
7654;DHT22;3869;48.406;10.774;2023-11-19T02:12:40;7.40;99.90
7654;DHT22;3869;48.406;10.774;2023-11-19T02:15:11;7.40;99.90
7654;DHT22;3869;48.406;10.774;2023-11-19T02:17:39;7.40;99.90
7654;DHT22;3869;48.406;10.774;2023-11-19T02:20:08;7.40;99.90
7654;DHT22;3869;48.406;10.774;2023-11-19T02:22:38;7.40;99.90
7654;DHT22;3869;48.406;10.774;2023-11-19T02:25:07;7.50;99.90
7654;DHT22;3869;48.406;10.774;2023-11-19T02:27:49;7.50;99.90
7654;DHT22;3869;48.406;10.774;2023-11-19T02:30:20;7.50;99.90
7654;DHT22;3869;48.406;10.774;2023-11-19T02:32:52;7.50;99.90
7654;DHT22;3869;48.406;10.774;2023-11-19T02:35:21;7.60;99.90
7654;DHT22;3869;48.406;10.774;2023-11-19T02:37:49;7.60;99.90
7654;DHT22;3869;48.406;10.774;2023-11-19T02:40:17;7.60;99.90
7654;DHT22;3869;48.406;10.774;2023-11-19T02:42:46;7.60;99.90
7654;DHT22;3869;48.406;10.774;2023-11-19T02:45:14;7.60;99.90
7654;DHT22;3869;48.406;10.774;2023-11-19T02:47:42;7.60;99.90
7654;DHT22;3869;48.406;10.774;2023-11-19T02:50:11;7.70;99.90
7654;DHT22;3869;48.406;10.774;2023-11-19T02:52:41;7.70;99.90
7654;DHT22;3869;48.406;10.774;2023-11-19T02:55:10;7.70;99.90
7654;DHT22;3869;48.406;10.774;2023-11-19T02:57:39;7.70;99.90
7654;DHT22;3869;48.406;10.774;2023-11-19T03:00:15;7.70;99.90
7654;DHT22;3869;48.406;10.774;2023-11-19T03:02:44;7.80;99.90
7654;DHT22;3869;48.406;10.774;2023-11-19T03:05:15;7.80;99.90
7654;DHT22;3869;48.406;10.774;2023-11-19T03:07:43;7.80;99.90
7654;DHT22;3869;48.406;10.774;2023-11-19T03:10:12;7.80;99.90
7654;DHT22;3869;48.406;10.774;2023-11-19T03:12:41;7.90;99.90
7654;DHT22;3869;48.406;10.774;2023-11-19T03:15:09;7.90;99.90
7654;DHT22;3869;48.406;10.774;2023-11-19T03:17:40;7.90;99.90
7654;DHT22;3869;48.406;10.774;2023-11-19T03:20:09;7.90;99.90
7654;DHT22;3869;48.406;10.774;2023-11-19T03:22:38;7.90;99.90
7654;DHT22;3869;48.406;10.774;2023-11-19T03:25:08;7.90;99.90
7654;DHT22;3869;48.406;10.774;2023-11-19T03:27:37;8.00;99.90
7654;DHT22;3869;48.406;10.774;2023-11-19T03:30:07;8.00;99.90
7654;DHT22;3869;48.406;10.774;2023-11-19T03:32:36;8.00;99.90
7654;DHT22;3869;48.406;10.774;2023-11-19T03:35:07;8.00;99.90
7654;DHT22;3869;48.406;10.774;2023-11-19T03:37:36;8.10;99.90
7654;DHT22;3869;48.406;10.774;2023-11-19T03:40:05;8.10;99.90
7654;DHT22;3869;48.406;10.774;2023-11-19T03:42:33;8.10;99.90
7654;DHT22;3869;48.406;10.774;2023-11-19T03:45:01;8.10;99.90
7654;DHT22;3869;48.406;10.774;2023-11-19T03:47:30;8.10;99.90
7654;DHT22;3869;48.406;10.774;2023-11-19T03:49:58;8.10;99.90
7654;DHT22;3869;48.406;10.774;2023-11-19T03:52:28;8.20;99.90
7654;DHT22;3869;48.406;10.774;2023-11-19T03:54:56;8.20;99.90
7654;DHT22;3869;48.406;10.774;2023-11-19T03:57:25;8.20;99.90
7654;DHT22;3869;48.406;10.774;2023-11-19T03:59:53;8.20;99.90
7654;DHT22;3869;48.406;10.774;2023-11-19T04:02:22;8.20;99.90
7654;DHT22;3869;48.406;10.774;2023-11-19T04:04:54;8.20;99.90
7654;DHT22;3869;48.406;10.774;2023-11-19T04:07:23;8.30;99.90
7654;DHT22;3869;48.406;10.774;2023-11-19T04:09:52;8.30;99.90
7654;DHT22;3869;48.406;10.774;2023-11-19T04:12:20;8.30;99.90
7654;DHT22;3869;48.406;10.774;2023-11-19T04:14:48;8.30;99.90
7654;DHT22;3869;48.406;10.774;2023-11-19T04:17:27;8.30;99.90
7654;DHT22;3869;48.406;10.774;2023-11-19T04:19:56;8.30;99.90
7654;DHT22;3869;48.406;10.774;2023-11-19T04:22:24;8.30;99.90
7654;DHT22;3869;48.406;10.774;2023-11-19T04:24:54;8.30;99.90
7654;DHT22;3869;48.406;10.774;2023-11-19T04:27:22;8.30;99.90
7654;DHT22;3869;48.406;10.774;2023-11-19T04:29:50;8.30;99.90
7654;DHT22;3869;48.406;10.774;2023-11-19T04:32:18;8.30;99.90
7654;DHT22;3869;48.406;10.774;2023-11-19T04:34:47;8.30;99.90
7654;DHT22;3869;48.406;10.774;2023-11-19T04:37:15;8.40;99.90
7654;DHT22;3869;48.406;10.774;2023-11-19T04:39:44;8.40;99.90
7654;DHT22;3869;48.406;10.774;2023-11-19T04:42:14;8.40;99.90
7654;DHT22;3869;48.406;10.774;2023-11-19T04:44:44;8.40;99.90
7654;DHT22;3869;48.406;10.774;2023-11-19T04:47:12;8.50;99.90
7654;DHT22;3869;48.406;10.774;2023-11-19T04:49:41;8.50;99.90
7654;DHT22;3869;48.406;10.774;2023-11-19T04:52:10;8.50;99.90
7654;DHT22;3869;48.406;10.774;2023-11-19T04:54:41;8.50;99.90
7654;DHT22;3869;48.406;10.774;2023-11-19T04:57:10;8.50;99.90
7654;DHT22;3869;48.406;10.774;2023-11-19T04:59:40;8.50;99.90
7654;DHT22;3869;48.406;10.774;2023-11-19T05:02:09;8.50;99.90
7654;DHT22;3869;48.406;10.774;2023-11-19T05:04:37;8.50;99.90
7654;DHT22;3869;48.406;10.774;2023-11-19T05:07:05;8.60;99.90
7654;DHT22;3869;48.406;10.774;2023-11-19T05:09:34;8.60;99.90
7654;DHT22;3869;48.406;10.774;2023-11-19T05:12:02;8.60;99.90
7654;DHT22;3869;48.406;10.774;2023-11-19T05:14:30;8.60;99.90
7654;DHT22;3869;48.406;10.774;2023-11-19T05:16:59;8.60;99.90
7654;DHT22;3869;48.406;10.774;2023-11-19T05:19:27;8.60;99.90
7654;DHT22;3869;48.406;10.774;2023-11-19T05:21:55;8.70;99.90
7654;DHT22;3869;48.406;10.774;2023-11-19T05:24:24;8.70;99.90
7654;DHT22;3869;48.406;10.774;2023-11-19T05:26:52;8.70;99.90
7654;DHT22;3869;48.406;10.774;2023-11-19T05:29:20;8.70;99.90
7654;DHT22;3869;48.406;10.774;2023-11-19T05:31:48;8.70;99.90
7654;DHT22;3869;48.406;10.774;2023-11-19T05:34:17;8.70;99.90
7654;DHT22;3869;48.406;10.774;2023-11-19T05:36:45;8.60;99.90
7654;DHT22;3869;48.406;10.774;2023-11-19T05:39:13;8.70;99.90
7654;DHT22;3869;48.406;10.774;2023-11-19T05:41:41;8.70;99.90
7654;DHT22;3869;48.406;10.774;2023-11-19T05:44:09;8.70;99.90
7654;DHT22;3869;48.406;10.774;2023-11-19T05:46:37;8.70;99.90
7654;DHT22;3869;48.406;10.774;2023-11-19T05:49:10;8.70;99.90
7654;DHT22;3869;48.406;10.774;2023-11-19T05:51:39;8.70;99.90
7654;DHT22;3869;48.406;10.774;2023-11-19T05:54:08;8.70;99.90
7654;DHT22;3869;48.406;10.774;2023-11-19T05:56:37;8.70;99.90
7654;DHT22;3869;48.406;10.774;2023-11-19T05:59:05;8.70;99.90
7654;DHT22;3869;48.406;10.774;2023-11-19T06:01:41;8.70;99.90
7654;DHT22;3869;48.406;10.774;2023-11-19T06:04:10;8.70;99.90
7654;DHT22;3869;48.406;10.774;2023-11-19T06:06:39;8.70;99.90
7654;DHT22;3869;48.406;10.774;2023-11-19T06:09:08;8.70;99.90
7654;DHT22;3869;48.406;10.774;2023-11-19T06:11:40;8.70;99.90
7654;DHT22;3869;48.406;10.774;2023-11-19T06:14:08;8.70;99.90
7654;DHT22;3869;48.406;10.774;2023-11-19T06:16:36;8.70;99.90
7654;DHT22;3869;48.406;10.774;2023-11-19T06:19:07;8.70;99.90
7654;DHT22;3869;48.406;10.774;2023-11-19T06:21:36;8.70;99.90
7654;DHT22;3869;48.406;10.774;2023-11-19T06:24:06;8.70;99.90
7654;DHT22;3869;48.406;10.774;2023-11-19T06:26:35;8.70;99.90
7654;DHT22;3869;48.406;10.774;2023-11-19T06:29:03;8.70;99.90
7654;DHT22;3869;48.406;10.774;2023-11-19T06:31:31;8.80;99.90
7654;DHT22;3869;48.406;10.774;2023-11-19T06:33:59;8.80;99.90
7654;DHT22;3869;48.406;10.774;2023-11-19T06:36:27;8.80;99.90
7654;DHT22;3869;48.406;10.774;2023-11-19T06:38:55;8.80;99.90
7654;DHT22;3869;48.406;10.774;2023-11-19T06:41:25;8.80;99.90
7654;DHT22;3869;48.406;10.774;2023-11-19T06:43:53;8.80;99.90
7654;DHT22;3869;48.406;10.774;2023-11-19T06:46:21;8.80;99.90
7654;DHT22;3869;48.406;10.774;2023-11-19T06:48:49;8.90;99.90
7654;DHT22;3869;48.406;10.774;2023-11-19T06:51:17;8.90;99.90
7654;DHT22;3869;48.406;10.774;2023-11-19T06:53:45;8.90;99.90
7654;DHT22;3869;48.406;10.774;2023-11-19T06:56:20;8.90;99.90
7654;DHT22;3869;48.406;10.774;2023-11-19T06:58:50;8.90;99.90
7654;DHT22;3869;48.406;10.774;2023-11-19T07:01:19;8.90;99.90
7654;DHT22;3869;48.406;10.774;2023-11-19T07:03:48;8.90;99.90
7654;DHT22;3869;48.406;10.774;2023-11-19T07:06:16;8.90;99.90
7654;DHT22;3869;48.406;10.774;2023-11-19T07:08:44;9.00;99.90
7654;DHT22;3869;48.406;10.774;2023-11-19T07:11:13;9.00;99.90
7654;DHT22;3869;48.406;10.774;2023-11-19T07:13:43;9.00;99.90
7654;DHT22;3869;48.406;10.774;2023-11-19T07:16:15;9.00;99.90
7654;DHT22;3869;48.406;10.774;2023-11-19T07:18:43;9.10;99.90
7654;DHT22;3869;48.406;10.774;2023-11-19T07:21:11;9.10;99.90
7654;DHT22;3869;48.406;10.774;2023-11-19T07:23:39;9.10;99.90
7654;DHT22;3869;48.406;10.774;2023-11-19T07:26:08;9.20;99.90
7654;DHT22;3869;48.406;10.774;2023-11-19T07:28:36;9.20;99.90
7654;DHT22;3869;48.406;10.774;2023-11-19T07:31:06;9.20;99.90
7654;DHT22;3869;48.406;10.774;2023-11-19T07:33:36;9.20;99.90
7654;DHT22;3869;48.406;10.774;2023-11-19T07:36:05;9.20;99.90
7654;DHT22;3869;48.406;10.774;2023-11-19T07:38:34;9.30;99.90
7654;DHT22;3869;48.406;10.774;2023-11-19T07:41:02;9.30;99.90
7654;DHT22;3869;48.406;10.774;2023-11-19T07:43:32;9.30;99.90
7654;DHT22;3869;48.406;10.774;2023-11-19T07:46:00;9.30;99.90
7654;DHT22;3869;48.406;10.774;2023-11-19T07:48:28;9.40;99.90
7654;DHT22;3869;48.406;10.774;2023-11-19T07:50:57;9.40;99.90
7654;DHT22;3869;48.406;10.774;2023-11-19T07:53:25;9.50;99.90
7654;DHT22;3869;48.406;10.774;2023-11-19T07:55:53;9.50;99.90
7654;DHT22;3869;48.406;10.774;2023-11-19T07:58:21;9.50;99.90
7654;DHT22;3869;48.406;10.774;2023-11-19T08:00:49;9.60;99.90
7654;DHT22;3869;48.406;10.774;2023-11-19T08:03:18;9.60;99.90
7654;DHT22;3869;48.406;10.774;2023-11-19T08:05:46;9.60;99.90
7654;DHT22;3869;48.406;10.774;2023-11-19T08:08:15;9.70;99.90
7654;DHT22;3869;48.406;10.774;2023-11-19T08:10:44;9.70;99.90
7654;DHT22;3869;48.406;10.774;2023-11-19T08:13:14;9.70;99.90
7654;DHT22;3869;48.406;10.774;2023-11-19T08:15:44;9.70;99.90
7654;DHT22;3869;48.406;10.774;2023-11-19T08:18:13;9.80;99.90
7654;DHT22;3869;48.406;10.774;2023-11-19T08:20:41;9.80;99.90
7654;DHT22;3869;48.406;10.774;2023-11-19T08:23:11;9.80;99.90
7654;DHT22;3869;48.406;10.774;2023-11-19T08:25:41;9.80;99.90
7654;DHT22;3869;48.406;10.774;2023-11-19T08:28:09;9.90;99.90
7654;DHT22;3869;48.406;10.774;2023-11-19T08:30:37;9.90;99.90
7654;DHT22;3869;48.406;10.774;2023-11-19T08:33:05;9.90;99.90
7654;DHT22;3869;48.406;10.774;2023-11-19T08:35:33;9.90;99.90
7654;DHT22;3869;48.406;10.774;2023-11-19T08:38:01;10.00;99.90
7654;DHT22;3869;48.406;10.774;2023-11-19T08:40:29;10.00;99.90
7654;DHT22;3869;48.406;10.774;2023-11-19T08:42:59;10.00;99.90
7654;DHT22;3869;48.406;10.774;2023-11-19T08:45:27;10.00;99.90
7654;DHT22;3869;48.406;10.774;2023-11-19T08:47:55;10.00;99.90
7654;DHT22;3869;48.406;10.774;2023-11-19T08:50:23;10.00;99.90
7654;DHT22;3869;48.406;10.774;2023-11-19T08:52:51;10.10;99.90
7654;DHT22;3869;48.406;10.774;2023-11-19T08:55:20;10.10;99.90
7654;DHT22;3869;48.406;10.774;2023-11-19T08:57:48;10.10;99.90
7654;DHT22;3869;48.406;10.774;2023-11-19T09:00:18;10.20;99.90
7654;DHT22;3869;48.406;10.774;2023-11-19T09:02:47;10.20;99.90
7654;DHT22;3869;48.406;10.774;2023-11-19T09:05:16;10.30;99.90
7654;DHT22;3869;48.406;10.774;2023-11-19T09:07:44;10.30;99.90
7654;DHT22;3869;48.406;10.774;2023-11-19T09:10:12;10.30;99.90
7654;DHT22;3869;48.406;10.774;2023-11-19T09:12:40;10.40;99.90
7654;DHT22;3869;48.406;10.774;2023-11-19T09:15:09;10.40;99.90
7654;DHT22;3869;48.406;10.774;2023-11-19T09:17:39;10.40;99.90
7654;DHT22;3869;48.406;10.774;2023-11-19T09:20:08;10.50;99.90
7654;DHT22;3869;48.406;10.774;2023-11-19T09:22:39;10.60;99.90
7654;DHT22;3869;48.406;10.774;2023-11-19T09:25:07;10.60;99.90
7654;DHT22;3869;48.406;10.774;2023-11-19T09:27:36;10.70;99.90
7654;DHT22;3869;48.406;10.774;2023-11-19T09:30:05;10.70;99.90
7654;DHT22;3869;48.406;10.774;2023-11-19T09:32:34;10.70;99.90
7654;DHT22;3869;48.406;10.774;2023-11-19T09:35:04;10.80;99.90
7654;DHT22;3869;48.406;10.774;2023-11-19T09:37:33;10.80;99.90
7654;DHT22;3869;48.406;10.774;2023-11-19T09:40:01;10.90;99.90
7654;DHT22;3869;48.406;10.774;2023-11-19T09:42:29;10.90;99.90
7654;DHT22;3869;48.406;10.774;2023-11-19T09:44:59;11.00;99.90
7654;DHT22;3869;48.406;10.774;2023-11-19T09:47:30;11.00;99.90
7654;DHT22;3869;48.406;10.774;2023-11-19T09:49:58;11.00;99.90
7654;DHT22;3869;48.406;10.774;2023-11-19T09:52:27;11.00;99.90
7654;DHT22;3869;48.406;10.774;2023-11-19T09:54:56;11.10;99.90
7654;DHT22;3869;48.406;10.774;2023-11-19T09:57:24;11.10;99.90
7654;DHT22;3869;48.406;10.774;2023-11-19T09:59:52;11.20;99.90
7654;DHT22;3869;48.406;10.774;2023-11-19T10:02:21;11.30;99.90
7654;DHT22;3869;48.406;10.774;2023-11-19T10:04:50;11.30;99.90
7654;DHT22;3869;48.406;10.774;2023-11-19T10:07:18;11.40;99.90
7654;DHT22;3869;48.406;10.774;2023-11-19T10:09:50;11.40;99.90
7654;DHT22;3869;48.406;10.774;2023-11-19T10:12:18;11.40;99.90
7654;DHT22;3869;48.406;10.774;2023-11-19T10:14:47;11.50;99.90
7654;DHT22;3869;48.406;10.774;2023-11-19T10:17:17;11.50;99.90
7654;DHT22;3869;48.406;10.774;2023-11-19T10:19:46;11.60;99.90
7654;DHT22;3869;48.406;10.774;2023-11-19T10:22:15;11.70;99.90
7654;DHT22;3869;48.406;10.774;2023-11-19T10:24:44;11.70;99.90
7654;DHT22;3869;48.406;10.774;2023-11-19T10:27:23;11.80;99.90
7654;DHT22;3869;48.406;10.774;2023-11-19T10:29:51;11.90;99.90
7654;DHT22;3869;48.406;10.774;2023-11-19T10:32:20;11.90;99.90
7654;DHT22;3869;48.406;10.774;2023-11-19T10:35:07;11.90;99.90
7654;DHT22;3869;48.406;10.774;2023-11-19T10:37:35;11.90;99.90
7654;DHT22;3869;48.406;10.774;2023-11-19T10:40:05;11.90;99.90
7654;DHT22;3869;48.406;10.774;2023-11-19T10:42:38;11.90;99.90
7654;DHT22;3869;48.406;10.774;2023-11-19T10:45:21;11.90;99.90
7654;DHT22;3869;48.406;10.774;2023-11-19T10:47:51;11.90;99.90
7654;DHT22;3869;48.406;10.774;2023-11-19T10:50:20;11.90;99.90
7654;DHT22;3869;48.406;10.774;2023-11-19T10:52:48;11.90;99.90
7654;DHT22;3869;48.406;10.774;2023-11-19T10:55:21;11.90;99.90
7654;DHT22;3869;48.406;10.774;2023-11-19T10:57:59;11.90;99.90
7654;DHT22;3869;48.406;10.774;2023-11-19T11:00:30;11.90;99.90
7654;DHT22;3869;48.406;10.774;2023-11-19T11:03:01;11.90;99.90
7654;DHT22;3869;48.406;10.774;2023-11-19T11:05:32;11.90;99.90
7654;DHT22;3869;48.406;10.774;2023-11-19T11:08:01;11.90;99.90
7654;DHT22;3869;48.406;10.774;2023-11-19T11:10:32;12.00;99.90
7654;DHT22;3869;48.406;10.774;2023-11-19T11:13:05;12.00;99.90
7654;DHT22;3869;48.406;10.774;2023-11-19T11:15:34;12.00;99.90
7654;DHT22;3869;48.406;10.774;2023-11-19T11:18:02;12.10;99.90
7654;DHT22;3869;48.406;10.774;2023-11-19T11:20:33;12.30;99.90
7654;DHT22;3869;48.406;10.774;2023-11-19T11:23:21;12.40;99.90
7654;DHT22;3869;48.406;10.774;2023-11-19T11:26:01;12.50;99.90
7654;DHT22;3869;48.406;10.774;2023-11-19T11:28:37;12.50;99.90
7654;DHT22;3869;48.406;10.774;2023-11-19T11:31:20;12.50;99.90
7654;DHT22;3869;48.406;10.774;2023-11-19T11:34:09;12.60;99.90
7654;DHT22;3869;48.406;10.774;2023-11-19T11:36:48;12.60;99.90
7654;DHT22;3869;48.406;10.774;2023-11-19T11:39:22;12.60;99.90
7654;DHT22;3869;48.406;10.774;2023-11-19T11:42:32;12.60;99.90
7654;DHT22;3869;48.406;10.774;2023-11-19T11:45:02;12.60;99.90
7654;DHT22;3869;48.406;10.774;2023-11-19T11:50:51;12.70;99.90
7654;DHT22;3869;48.406;10.774;2023-11-19T11:53:21;12.80;99.90
7654;DHT22;3869;48.406;10.774;2023-11-19T11:55:58;12.80;99.90
7654;DHT22;3869;48.406;10.774;2023-11-19T11:58:35;12.80;99.90
7654;DHT22;3869;48.406;10.774;2023-11-19T12:01:05;12.70;99.90
7654;DHT22;3869;48.406;10.774;2023-11-19T12:03:37;12.80;99.90
7654;DHT22;3869;48.406;10.774;2023-11-19T12:06:06;12.80;99.90
7654;DHT22;3869;48.406;10.774;2023-11-19T12:08:35;12.80;99.90
7654;DHT22;3869;48.406;10.774;2023-11-19T12:11:06;12.80;99.90
7654;DHT22;3869;48.406;10.774;2023-11-19T12:13:55;12.80;99.90
7654;DHT22;3869;48.406;10.774;2023-11-19T12:16:26;12.80;99.90
7654;DHT22;3869;48.406;10.774;2023-11-19T12:18:56;12.70;99.90
7654;DHT22;3869;48.406;10.774;2023-11-19T12:21:28;12.70;99.90
7654;DHT22;3869;48.406;10.774;2023-11-19T12:23:58;12.70;99.90
7654;DHT22;3869;48.406;10.774;2023-11-19T12:26:33;12.80;99.90
7654;DHT22;3869;48.406;10.774;2023-11-19T12:29:02;12.70;99.90
7654;DHT22;3869;48.406;10.774;2023-11-19T12:31:36;12.70;99.90
7654;DHT22;3869;48.406;10.774;2023-11-19T12:34:08;12.70;99.90
7654;DHT22;3869;48.406;10.774;2023-11-19T12:36:40;12.70;99.90
7654;DHT22;3869;48.406;10.774;2023-11-19T12:39:10;12.70;99.90
7654;DHT22;3869;48.406;10.774;2023-11-19T12:41:51;12.70;99.90
7654;DHT22;3869;48.406;10.774;2023-11-19T12:44:21;12.70;99.90
7654;DHT22;3869;48.406;10.774;2023-11-19T12:47:03;12.70;99.90
7654;DHT22;3869;48.406;10.774;2023-11-19T12:49:31;12.70;99.90
7654;DHT22;3869;48.406;10.774;2023-11-19T12:51:59;12.80;99.90
7654;DHT22;3869;48.406;10.774;2023-11-19T12:54:35;12.80;99.90
7654;DHT22;3869;48.406;10.774;2023-11-19T12:57:04;12.80;99.90
7654;DHT22;3869;48.406;10.774;2023-11-19T12:59:34;12.80;99.90
7654;DHT22;3869;48.406;10.774;2023-11-19T13:02:02;12.80;99.90
7654;DHT22;3869;48.406;10.774;2023-11-19T13:04:33;12.70;99.90
7654;DHT22;3869;48.406;10.774;2023-11-19T13:07:02;12.70;99.90
7654;DHT22;3869;48.406;10.774;2023-11-19T13:09:32;12.80;99.90
7654;DHT22;3869;48.406;10.774;2023-11-19T13:12:12;12.80;99.90
7654;DHT22;3869;48.406;10.774;2023-11-19T13:14:42;12.80;99.90
7654;DHT22;3869;48.406;10.774;2023-11-19T13:17:15;12.80;99.90
7654;DHT22;3869;48.406;10.774;2023-11-19T13:19:43;12.80;99.90
7654;DHT22;3869;48.406;10.774;2023-11-19T13:22:12;12.80;99.90
7654;DHT22;3869;48.406;10.774;2023-11-19T13:24:40;12.80;99.90
7654;DHT22;3869;48.406;10.774;2023-11-19T13:27:09;12.80;99.90
7654;DHT22;3869;48.406;10.774;2023-11-19T13:29:37;12.80;99.90
7654;DHT22;3869;48.406;10.774;2023-11-19T13:32:07;12.80;99.90
7654;DHT22;3869;48.406;10.774;2023-11-19T13:34:35;12.90;99.90
7654;DHT22;3869;48.406;10.774;2023-11-19T13:37:03;12.80;99.90
7654;DHT22;3869;48.406;10.774;2023-11-19T13:39:31;12.80;99.90
7654;DHT22;3869;48.406;10.774;2023-11-19T13:42:00;12.80;99.90
7654;DHT22;3869;48.406;10.774;2023-11-19T13:44:31;12.80;99.90
7654;DHT22;3869;48.406;10.774;2023-11-19T13:46:59;12.80;99.90
7654;DHT22;3869;48.406;10.774;2023-11-19T13:49:28;12.80;99.90
7654;DHT22;3869;48.406;10.774;2023-11-19T13:51:56;12.80;99.90
7654;DHT22;3869;48.406;10.774;2023-11-19T13:54:24;12.70;99.90
7654;DHT22;3869;48.406;10.774;2023-11-19T13:56:55;12.80;99.90
7654;DHT22;3869;48.406;10.774;2023-11-19T13:59:25;12.80;99.90
7654;DHT22;3869;48.406;10.774;2023-11-19T14:01:53;13.00;99.90
7654;DHT22;3869;48.406;10.774;2023-11-19T14:04:21;13.10;99.90
7654;DHT22;3869;48.406;10.774;2023-11-19T14:06:50;13.20;99.90
7654;DHT22;3869;48.406;10.774;2023-11-19T14:09:19;13.40;99.90
7654;DHT22;3869;48.406;10.774;2023-11-19T14:11:48;13.40;99.90
7654;DHT22;3869;48.406;10.774;2023-11-19T14:14:18;13.40;99.90
7654;DHT22;3869;48.406;10.774;2023-11-19T14:16:46;13.30;99.90
7654;DHT22;3869;48.406;10.774;2023-11-19T14:19:14;13.20;99.90
7654;DHT22;3869;48.406;10.774;2023-11-19T14:21:42;13.20;99.90
7654;DHT22;3869;48.406;10.774;2023-11-19T14:24:13;13.10;99.90
7654;DHT22;3869;48.406;10.774;2023-11-19T14:26:41;13.10;99.90
7654;DHT22;3869;48.406;10.774;2023-11-19T14:29:09;13.10;99.90
7654;DHT22;3869;48.406;10.774;2023-11-19T14:31:37;13.00;99.90
7654;DHT22;3869;48.406;10.774;2023-11-19T14:34:06;13.00;99.90
7654;DHT22;3869;48.406;10.774;2023-11-19T14:36:35;13.10;99.90
7654;DHT22;3869;48.406;10.774;2023-11-19T14:39:03;13.00;99.90
7654;DHT22;3869;48.406;10.774;2023-11-19T14:41:32;13.00;99.90
7654;DHT22;3869;48.406;10.774;2023-11-19T14:44:00;12.90;99.90
7654;DHT22;3869;48.406;10.774;2023-11-19T14:46:30;12.90;99.90
7654;DHT22;3869;48.406;10.774;2023-11-19T14:48:58;12.90;99.90
7654;DHT22;3869;48.406;10.774;2023-11-19T14:51:26;12.90;99.90
7654;DHT22;3869;48.406;10.774;2023-11-19T14:53:54;12.90;99.90
7654;DHT22;3869;48.406;10.774;2023-11-19T14:56:22;12.90;99.90
7654;DHT22;3869;48.406;10.774;2023-11-19T14:58:51;12.90;99.90
7654;DHT22;3869;48.406;10.774;2023-11-19T15:01:19;12.80;99.90
7654;DHT22;3869;48.406;10.774;2023-11-19T15:03:47;12.80;99.90
7654;DHT22;3869;48.406;10.774;2023-11-19T15:06:22;12.70;99.90
7654;DHT22;3869;48.406;10.774;2023-11-19T15:08:50;12.70;99.90
7654;DHT22;3869;48.406;10.774;2023-11-19T15:11:18;12.60;99.90
7654;DHT22;3869;48.406;10.774;2023-11-19T15:13:46;12.60;99.90
7654;DHT22;3869;48.406;10.774;2023-11-19T15:16:16;12.50;99.90
7654;DHT22;3869;48.406;10.774;2023-11-19T15:18:49;12.40;99.90
7654;DHT22;3869;48.406;10.774;2023-11-19T15:21:18;12.30;99.90
7654;DHT22;3869;48.406;10.774;2023-11-19T15:23:46;12.30;99.90
7654;DHT22;3869;48.406;10.774;2023-11-19T15:26:14;12.20;99.90
7654;DHT22;3869;48.406;10.774;2023-11-19T15:28:42;12.20;99.90
7654;DHT22;3869;48.406;10.774;2023-11-19T15:31:10;12.20;99.90
7654;DHT22;3869;48.406;10.774;2023-11-19T15:33:41;12.10;99.90
7654;DHT22;3869;48.406;10.774;2023-11-19T15:36:09;12.00;99.90
7654;DHT22;3869;48.406;10.774;2023-11-19T15:38:37;12.00;99.90
7654;DHT22;3869;48.406;10.774;2023-11-19T15:41:08;12.00;99.90
7654;DHT22;3869;48.406;10.774;2023-11-19T15:43:39;11.90;99.90
7654;DHT22;3869;48.406;10.774;2023-11-19T15:46:07;11.90;99.90
7654;DHT22;3869;48.406;10.774;2023-11-19T15:48:36;11.80;99.90
7654;DHT22;3869;48.406;10.774;2023-11-19T15:51:06;11.80;99.90
7654;DHT22;3869;48.406;10.774;2023-11-19T15:53:34;11.80;99.90
7654;DHT22;3869;48.406;10.774;2023-11-19T15:56:02;11.70;99.90
7654;DHT22;3869;48.406;10.774;2023-11-19T15:58:30;11.70;99.90
7654;DHT22;3869;48.406;10.774;2023-11-19T16:01:01;11.60;99.90
7654;DHT22;3869;48.406;10.774;2023-11-19T16:03:29;11.60;99.90
7654;DHT22;3869;48.406;10.774;2023-11-19T16:06:18;11.50;99.90
7654;DHT22;3869;48.406;10.774;2023-11-19T16:08:46;11.50;99.90
7654;DHT22;3869;48.406;10.774;2023-11-19T16:11:15;11.50;99.90
7654;DHT22;3869;48.406;10.774;2023-11-19T16:13:44;11.50;99.90